createdAt,value
2023-02-24T00:01:25.092Z,3.83
2023-02-24T00:03:56.986Z,4.03
2023-02-24T00:06:36.196Z,4.27
2023-02-24T00:09:09.726Z,3.20
2023-02-24T00:11:45.122Z,4.07
2023-02-24T00:14:19.254Z,4.80
2023-02-24T00:16:50.090Z,3.80
2023-02-24T00:19:25.185Z,5.93
2023-02-24T00:21:58.806Z,5.97
2023-02-24T00:24:29.135Z,5.27
2023-02-24T00:27:01.136Z,8.23
2023-02-24T00:29:32.633Z,5.00
2023-02-24T00:32:06.731Z,4.77
2023-02-24T00:34:38.809Z,5.73
2023-02-24T00:37:12.304Z,5.77
2023-02-24T00:39:44.422Z,3.87
2023-02-24T00:42:15.085Z,4.43
2023-02-24T00:44:48.744Z,4.37
2023-02-24T00:47:20.003Z,5.53
2023-02-24T00:49:50.506Z,7.57
2023-02-24T00:52:27.981Z,3.73
2023-02-24T00:54:59.008Z,5.23
2023-02-24T00:57:28.830Z,6.57
2023-02-24T00:59:58.998Z,4.07
2023-02-24T01:02:28.987Z,3.67
2023-02-24T01:05:00.094Z,4.70
2023-02-24T01:07:32.581Z,4.63
2023-02-24T01:10:02.459Z,1.87
2023-02-24T01:12:38.957Z,5.97
2023-02-24T01:15:11.398Z,3.00
2023-02-24T01:17:41.160Z,7.80
2023-02-24T01:20:18.578Z,3.60
2023-02-24T01:22:53.721Z,3.00
2023-02-24T01:25:23.550Z,5.37
2023-02-24T01:27:54.158Z,5.97
2023-02-24T01:30:24.034Z,5.40
2023-02-24T01:32:53.951Z,8.50
2023-02-24T01:35:24.495Z,7.20
2023-02-24T01:37:56.928Z,4.70
2023-02-24T01:40:27.874Z,5.07
2023-02-24T01:42:57.678Z,5.90
2023-02-24T01:45:36.839Z,4.63
2023-02-24T01:48:09.866Z,7.37
2023-02-24T01:50:41.345Z,4.33
2023-02-24T01:53:14.223Z,3.80
2023-02-24T01:55:50.079Z,4.83
2023-02-24T01:58:25.690Z,6.83
2023-02-24T02:00:55.674Z,4.27
2023-02-24T02:03:30.098Z,4.07
2023-02-24T02:06:04.447Z,5.07
2023-02-24T02:08:39.593Z,2.93
2023-02-24T02:11:11.891Z,4.57
2023-02-24T02:13:46.178Z,4.07
2023-02-24T02:16:44.243Z,4.10
2023-02-24T02:19:44.671Z,4.23
2023-02-24T02:22:45.361Z,4.97
2023-02-24T02:25:25.652Z,7.87
2023-02-24T02:28:19.978Z,5.80
2023-02-24T02:30:58.286Z,5.00
2023-02-24T02:34:08.437Z,3.53
2023-02-24T02:36:48.714Z,3.90
2023-02-24T02:39:24.977Z,6.33
2023-02-24T02:42:01.619Z,5.40
2023-02-24T02:44:39.852Z,4.23
2023-02-24T02:47:18.362Z,3.90
2023-02-24T02:49:55.010Z,6.27
2023-02-24T02:52:31.982Z,5.73
2023-02-24T02:55:07.470Z,5.50
2023-02-24T02:57:40.330Z,6.27
2023-02-24T03:00:21.546Z,4.30
2023-02-24T03:02:55.442Z,4.93
2023-02-24T03:05:33.315Z,5.47
2023-02-24T03:08:11.511Z,6.43
2023-02-24T03:10:44.919Z,4.40
2023-02-24T03:13:16.772Z,7.33
2023-02-24T03:15:49.031Z,5.87
2023-02-24T03:18:29.157Z,5.17
2023-02-24T03:21:08.105Z,4.97
2023-02-24T03:23:45.527Z,4.70
2023-02-24T03:26:23.554Z,5.63
2023-02-24T03:29:02.223Z,6.83
2023-02-24T03:31:38.050Z,7.10
2023-02-24T03:34:13.337Z,4.57
2023-02-24T03:36:46.029Z,9.10
2023-02-24T03:39:15.986Z,5.43
2023-02-24T03:41:54.340Z,4.57
2023-02-24T03:44:24.857Z,5.87
2023-02-24T03:46:56.087Z,5.43
2023-02-24T03:49:27.286Z,8.90
2023-02-24T03:52:12.655Z,5.03
2023-02-24T03:55:02.082Z,8.63
2023-02-24T03:57:55.019Z,5.60
2023-02-24T04:00:34.418Z,8.30
2023-02-24T04:03:15.426Z,6.13
2023-02-24T04:05:52.479Z,5.00
2023-02-24T04:08:27.771Z,5.57
2023-02-24T04:11:05.482Z,7.73
2023-02-24T04:13:40.187Z,8.73
2023-02-24T04:16:18.491Z,6.67
2023-02-24T04:18:52.475Z,6.87
2023-02-24T04:21:25.478Z,8.27
2023-02-24T04:23:59.963Z,7.63
2023-02-24T04:26:31.182Z,7.80
2023-02-24T04:29:01.247Z,12.20
2023-02-24T04:31:33.330Z,5.57
2023-02-24T04:34:07.433Z,11.97
2023-02-24T04:36:38.501Z,8.67
2023-02-24T04:39:11.564Z,9.53
2023-02-24T04:41:41.469Z,6.43
2023-02-24T04:44:11.299Z,6.60
2023-02-24T04:46:41.153Z,10.33
2023-02-24T04:49:11.094Z,8.73
2023-02-24T04:51:42.968Z,8.33
2023-02-24T04:54:17.765Z,8.53
2023-02-24T04:56:48.058Z,8.93
2023-02-24T04:59:19.654Z,11.30
2023-02-24T05:01:51.793Z,9.57
2023-02-24T05:04:21.911Z,10.03
2023-02-24T05:06:51.680Z,10.50
2023-02-24T05:09:24.180Z,12.03
2023-02-24T05:11:55.803Z,9.77
2023-02-24T05:14:25.688Z,11.17
2023-02-24T05:17:00.260Z,7.80
2023-02-24T05:19:42.648Z,7.93
2023-02-24T05:22:14.586Z,8.17
2023-02-24T05:24:48.221Z,10.90
2023-02-24T05:27:18.035Z,11.97
2023-02-24T05:29:49.402Z,8.47
2023-02-24T05:32:19.609Z,8.60
2023-02-24T05:34:49.771Z,8.37
2023-02-24T05:37:19.583Z,9.80
2023-02-24T05:39:51.950Z,10.47
2023-02-24T05:42:21.752Z,8.07
2023-02-24T05:44:51.547Z,10.33
2023-02-24T05:47:23.480Z,10.57
2023-02-24T05:49:56.897Z,12.83
2023-02-24T05:52:26.865Z,9.33
2023-02-24T05:55:00.913Z,13.07
2023-02-24T05:57:35.524Z,16.40
2023-02-24T06:00:16.096Z,14.17
2023-02-24T06:02:49.932Z,17.00
2023-02-24T06:05:28.580Z,16.37
2023-02-24T06:08:05.239Z,11.20
2023-02-24T06:10:38.855Z,10.33
2023-02-24T06:13:10.507Z,9.27
2023-02-24T06:15:41.884Z,16.17
2023-02-24T06:18:11.798Z,9.80
2023-02-24T06:20:42.113Z,14.50
2023-02-24T06:23:11.980Z,9.67
2023-02-24T06:25:44.464Z,16.77
2023-02-24T06:28:14.240Z,11.80
2023-02-24T06:30:44.056Z,10.70
2023-02-24T06:33:13.980Z,11.77
2023-02-24T06:35:43.760Z,11.87
2023-02-24T06:38:14.876Z,13.00
2023-02-24T06:40:47.641Z,12.30
2023-02-24T06:43:17.662Z,15.97
2023-02-24T06:45:47.605Z,13.50
2023-02-24T06:48:17.397Z,12.57
2023-02-24T06:50:48.839Z,14.50
2023-02-24T06:53:19.703Z,20.60
2023-02-24T06:55:52.135Z,14.83
2023-02-24T06:58:24.384Z,16.97
2023-02-24T07:00:59.723Z,14.90
2023-02-24T07:03:39.729Z,14.40
2023-02-24T07:06:28.707Z,17.13
2023-02-24T07:09:01.073Z,19.13
2023-02-24T07:11:38.633Z,16.33
2023-02-24T07:14:08.733Z,19.30
2023-02-24T07:16:41.752Z,14.50
2023-02-24T07:19:15.275Z,13.90
2023-02-24T07:21:50.225Z,13.43
2023-02-24T07:24:25.178Z,13.23
2023-02-24T07:27:02.790Z,15.07
2023-02-24T07:29:34.319Z,14.60
2023-02-24T07:32:06.269Z,16.87
2023-02-24T07:34:40.401Z,14.00
2023-02-24T07:37:12.445Z,15.87
2023-02-24T07:39:43.249Z,15.53
2023-02-24T07:42:16.285Z,13.83
2023-02-24T07:44:49.356Z,15.10
2023-02-24T07:47:21.549Z,14.70
2023-02-24T07:49:51.434Z,12.90
2023-02-24T07:52:21.399Z,12.63
2023-02-24T07:54:51.246Z,13.40
2023-02-24T07:57:25.319Z,11.47
2023-02-24T07:59:55.261Z,11.93
2023-02-24T08:02:25.204Z,11.30
2023-02-24T08:04:55.298Z,9.67
2023-02-24T08:07:30.509Z,8.13
2023-02-24T08:10:12.753Z,11.73
2023-02-24T08:12:47.564Z,7.77
2023-02-24T08:15:24.390Z,13.00
2023-02-24T08:17:59.787Z,9.47
2023-02-24T08:20:36.280Z,10.80
2023-02-24T08:23:11.281Z,8.13
2023-02-24T08:25:44.723Z,8.60
2023-02-24T08:28:17.920Z,7.60
2023-02-24T08:30:48.003Z,11.40
2023-02-24T08:33:23.201Z,10.57
2023-02-24T08:36:01.434Z,7.33
2023-02-24T08:38:40.109Z,9.67
2023-02-24T08:41:18.300Z,10.00
2023-02-24T08:43:51.742Z,8.37
2023-02-24T08:46:26.866Z,6.63
2023-02-24T08:49:00.929Z,8.50
2023-02-24T08:51:35.088Z,7.30
2023-02-24T08:54:11.681Z,9.13
2023-02-24T08:56:44.033Z,8.23
2023-02-24T08:59:31.662Z,12.73
2023-02-24T09:02:14.637Z,11.47
2023-02-24T09:04:46.157Z,10.80
2023-02-24T09:07:18.192Z,11.93
2023-02-24T09:09:48.111Z,10.73
2023-02-24T09:12:25.088Z,13.60
2023-02-24T09:15:01.469Z,13.00
2023-02-24T09:18:01.462Z,12.73
2023-02-24T09:20:52.324Z,19.57
2023-02-24T09:23:30.090Z,16.17
2023-02-24T09:26:11.326Z,16.73
2023-02-24T09:28:48.948Z,24.83
2023-02-24T09:31:24.162Z,20.77
2023-02-24T09:33:54.364Z,19.10
2023-02-24T09:36:28.235Z,25.43
2023-02-24T09:39:12.225Z,22.87
2023-02-24T09:41:57.163Z,22.57
2023-02-24T09:44:35.878Z,25.70
2023-02-24T09:47:20.059Z,21.67
2023-02-24T09:50:01.838Z,23.87
2023-02-24T09:52:43.810Z,27.57
2023-02-24T09:55:27.864Z,30.13
2023-02-24T09:58:15.921Z,24.77
2023-02-24T10:00:56.791Z,23.13
2023-02-24T10:03:48.316Z,32.13
2023-02-24T10:06:22.693Z,27.70
2023-02-24T10:08:57.934Z,22.03
2023-02-24T10:11:35.725Z,21.53
2023-02-24T10:14:09.793Z,22.87
2023-02-24T10:16:59.199Z,21.30
2023-02-24T10:19:34.755Z,28.93
2023-02-24T10:22:10.409Z,29.77
2023-02-24T10:24:47.597Z,33.07
2023-02-24T10:27:24.250Z,30.80
2023-02-24T10:30:05.515Z,29.13
2023-02-24T10:32:47.256Z,31.63
2023-02-24T10:35:26.124Z,20.83
2023-02-24T10:38:05.359Z,28.27
2023-02-24T10:40:45.184Z,23.23
2023-02-24T10:43:30.216Z,28.17
2023-02-24T10:46:17.547Z,25.50
2023-02-24T10:49:00.654Z,28.60
2023-02-24T10:51:37.348Z,29.97
2023-02-24T10:54:27.224Z,26.73
2023-02-24T10:57:08.119Z,32.40
2023-02-24T11:00:14.424Z,22.83
2023-02-24T11:03:07.317Z,26.10
2023-02-24T11:05:44.511Z,31.97
2023-02-24T11:08:36.770Z,31.33
2023-02-24T11:11:20.544Z,28.17
2023-02-24T11:14:06.970Z,30.17
2023-02-24T11:16:58.740Z,28.63
2023-02-24T11:19:32.017Z,27.30
2023-02-24T11:22:02.732Z,23.33
2023-02-24T11:24:35.175Z,30.03
2023-02-24T11:27:07.590Z,27.53
2023-02-24T11:29:51.303Z,33.53
2023-02-24T11:32:41.550Z,26.10
2023-02-24T11:35:20.814Z,28.70
2023-02-24T11:38:06.040Z,18.23
2023-02-24T11:40:42.219Z,15.57
2023-02-24T11:43:18.596Z,20.70
2023-02-24T11:45:51.364Z,20.07
2023-02-24T11:48:25.345Z,15.90
2023-02-24T11:50:58.749Z,15.93
2023-02-24T11:53:33.981Z,17.93
2023-02-24T11:56:12.973Z,19.10
2023-02-24T11:58:41.006Z,17.23
2023-02-24T12:01:17.587Z,18.90
2023-02-24T12:03:55.325Z,17.50
2023-02-24T12:06:30.992Z,16.40
2023-02-24T12:09:07.996Z,20.27
2023-02-24T12:11:48.964Z,16.77
2023-02-24T12:14:26.697Z,11.77
2023-02-24T12:17:07.324Z,11.33
2023-02-24T12:19:54.823Z,8.93
2023-02-24T12:22:29.453Z,10.43
2023-02-24T12:24:59.561Z,10.67
2023-02-24T12:27:46.529Z,7.57
2023-02-24T12:30:49.015Z,9.03
2023-02-24T12:33:45.902Z,12.23
2023-02-24T12:36:30.811Z,9.77
2023-02-24T12:39:10.880Z,4.30
2023-02-24T12:41:54.093Z,4.87
2023-02-24T12:44:38.685Z,6.23
2023-02-24T12:47:14.327Z,7.10
2023-02-24T12:49:59.598Z,7.33
2023-02-24T12:52:37.424Z,11.63
2023-02-24T12:55:14.779Z,8.60
2023-02-24T12:57:52.339Z,11.33
2023-02-24T13:00:32.611Z,9.67
2023-02-24T13:03:13.134Z,11.87
2023-02-24T13:05:47.989Z,9.20
2023-02-24T13:08:29.653Z,7.63
2023-02-24T13:11:10.032Z,12.73
2023-02-24T13:13:49.005Z,12.17
2023-02-24T13:16:30.797Z,6.70
2023-02-24T13:19:21.197Z,5.10
2023-02-24T13:22:06.358Z,8.73
2023-02-24T13:24:37.826Z,14.07
2023-02-24T13:27:23.746Z,12.63
2023-02-24T13:29:57.607Z,17.03
2023-02-24T13:32:34.467Z,11.50
2023-02-24T13:35:06.677Z,11.33
2023-02-24T13:37:39.544Z,12.83
2023-02-24T13:40:29.350Z,7.97
2023-02-24T13:43:02.401Z,13.53
2023-02-24T13:45:34.143Z,10.83
2023-02-24T13:48:30.442Z,10.20
2023-02-24T13:51:25.632Z,10.63
2023-02-24T13:54:09.611Z,15.77
2023-02-24T13:56:45.661Z,12.60
2023-02-24T13:59:36.600Z,12.13
2023-02-24T14:02:15.428Z,13.40
2023-02-24T14:04:53.383Z,10.37
2023-02-24T14:07:26.309Z,14.73
2023-02-24T14:10:00.817Z,14.20
2023-02-24T14:12:33.726Z,9.90
2023-02-24T14:15:06.229Z,15.73
2023-02-24T14:17:38.888Z,10.40
2023-02-24T14:20:22.009Z,12.53
2023-02-24T14:22:53.520Z,17.17
2023-02-24T14:25:25.711Z,15.17
2023-02-24T14:27:58.283Z,19.23
2023-02-24T14:30:31.991Z,16.40
2023-02-24T14:33:02.833Z,18.87
2023-02-24T14:35:39.241Z,12.23
2023-02-24T14:38:09.313Z,11.60
2023-02-24T14:40:39.125Z,16.07
2023-02-24T14:43:17.667Z,15.47
2023-02-24T14:45:52.429Z,15.90
2023-02-24T14:48:28.571Z,13.50
2023-02-24T14:51:04.857Z,21.10
2023-02-24T14:53:38.540Z,19.97
2023-02-24T14:56:09.959Z,16.03
2023-02-24T14:58:46.904Z,19.97
2023-02-24T15:01:24.263Z,19.97
2023-02-24T15:03:57.527Z,21.30
2023-02-24T15:06:33.307Z,17.27
2023-02-24T15:09:05.792Z,15.27
2023-02-24T15:11:37.411Z,11.73
2023-02-24T15:14:10.556Z,11.07
2023-02-24T15:16:42.901Z,13.53
2023-02-24T15:19:27.436Z,11.83
2023-02-24T15:22:00.054Z,21.03
2023-02-24T15:24:32.074Z,19.37
2023-02-24T15:27:03.993Z,19.53
2023-02-24T15:29:34.526Z,18.70
2023-02-24T15:32:08.028Z,14.53
2023-02-24T15:34:39.690Z,10.60
2023-02-24T15:37:24.050Z,11.47
2023-02-24T15:39:55.362Z,10.63
2023-02-24T15:42:32.531Z,10.73
2023-02-24T15:45:04.159Z,7.67
2023-02-24T15:47:43.526Z,16.17
2023-02-24T15:50:16.230Z,10.43
2023-02-24T15:52:48.789Z,16.53
2023-02-24T15:55:19.737Z,11.10
2023-02-24T15:57:51.995Z,11.87
2023-02-24T16:00:23.876Z,12.10
2023-02-24T16:02:53.856Z,16.83
2023-02-24T16:05:23.652Z,12.40
2023-02-24T16:07:56.945Z,12.60
2023-02-24T16:10:29.731Z,17.47
2023-02-24T16:13:02.033Z,17.03
2023-02-24T16:15:33.971Z,18.17
2023-02-24T16:18:04.929Z,21.23
2023-02-24T16:20:39.816Z,18.30
2023-02-24T16:23:14.932Z,18.47
2023-02-24T16:25:47.533Z,14.90
2023-02-24T16:28:18.649Z,19.00
2023-02-24T16:30:48.998Z,16.27
2023-02-24T16:33:23.792Z,21.30
2023-02-24T16:35:54.774Z,21.13
2023-02-24T16:38:29.757Z,25.80
2023-02-24T16:40:59.603Z,23.90
2023-02-24T16:43:29.954Z,27.10
2023-02-24T16:46:06.437Z,22.40
2023-02-24T16:48:38.045Z,16.93
2023-02-24T16:51:08.774Z,15.07
2023-02-24T16:53:41.204Z,17.00
2023-02-24T16:56:12.509Z,11.97
2023-02-24T16:58:42.292Z,12.73
2023-02-24T17:01:19.252Z,11.90
2023-02-24T17:03:51.560Z,23.63
2023-02-24T17:06:25.145Z,20.17
2023-02-24T17:08:57.920Z,11.07
2023-02-24T17:11:30.098Z,8.80
2023-02-24T17:14:00.543Z,11.33
2023-02-24T17:16:30.348Z,8.67
2023-02-24T17:19:00.210Z,14.23
2023-02-24T17:21:29.981Z,13.80
2023-02-24T17:24:02.472Z,17.03
2023-02-24T17:26:32.348Z,18.23
2023-02-24T17:29:02.149Z,17.20
2023-02-24T17:31:33.185Z,14.67
2023-02-24T17:34:05.913Z,13.33
2023-02-24T17:36:36.050Z,16.03
2023-02-24T17:39:08.625Z,19.80
2023-02-24T17:41:38.495Z,18.97
2023-02-24T17:44:08.317Z,19.83
2023-02-24T17:46:38.155Z,16.53
2023-02-24T17:49:08.138Z,19.10
2023-02-24T17:51:38.018Z,16.13
2023-02-24T17:54:10.595Z,16.83
2023-02-24T17:56:40.401Z,20.47
2023-02-24T17:59:10.220Z,21.13
2023-02-24T18:01:39.963Z,14.97
2023-02-24T18:04:09.734Z,19.90
2023-02-24T18:06:39.508Z,8.30
2023-02-24T18:09:12.562Z,5.43
2023-02-24T18:11:45.874Z,11.03
2023-02-24T18:14:15.994Z,11.50
2023-02-24T18:16:45.765Z,8.23
2023-02-24T18:19:15.588Z,13.17
2023-02-24T18:21:48.246Z,8.07
2023-02-24T18:24:22.869Z,13.83
2023-02-24T18:26:52.938Z,14.63
2023-02-24T18:29:23.347Z,17.73
2023-02-24T18:31:53.387Z,15.97
2023-02-24T18:34:23.264Z,14.23
2023-02-24T18:36:53.233Z,13.87
2023-02-24T18:39:25.902Z,20.43
2023-02-24T18:41:56.273Z,13.40
2023-02-24T18:44:27.062Z,20.60
2023-02-24T18:46:56.869Z,20.20
2023-02-24T18:49:26.738Z,13.87
2023-02-24T18:51:56.601Z,10.60
2023-02-24T18:54:29.064Z,10.60
2023-02-24T18:56:58.844Z,13.43
2023-02-24T18:59:28.685Z,14.63
2023-02-24T19:01:59.073Z,15.17
2023-02-24T19:04:28.919Z,16.07
2023-02-24T19:06:58.714Z,17.17
2023-02-24T19:09:31.097Z,17.53
2023-02-24T19:12:01.946Z,18.40
2023-02-24T19:14:31.899Z,20.40
2023-02-24T19:17:03.209Z,19.70
2023-02-24T19:19:32.999Z,19.13
2023-02-24T19:22:03.118Z,15.87
2023-02-24T19:24:35.491Z,16.83
2023-02-24T19:27:05.226Z,19.00
2023-02-24T19:29:35.010Z,15.20
2023-02-24T19:32:04.812Z,14.87
2023-02-24T19:34:34.651Z,16.17
2023-02-24T19:37:04.418Z,19.33
2023-02-24T19:39:36.820Z,18.23
2023-02-24T19:42:07.009Z,16.93
2023-02-24T19:44:37.151Z,15.13
2023-02-24T19:47:07.487Z,10.60
2023-02-24T19:49:37.254Z,13.00
2023-02-24T19:52:07.006Z,12.77
2023-02-24T19:54:39.415Z,10.60
2023-02-24T19:57:10.375Z,14.97
2023-02-24T19:59:40.300Z,15.70
2023-02-24T20:02:10.703Z,14.37
2023-02-24T20:04:40.550Z,13.87
2023-02-24T20:07:10.338Z,14.10
2023-02-24T20:09:44.118Z,7.47
2023-02-24T20:12:14.124Z,13.27
2023-02-24T20:14:43.961Z,17.77
2023-02-24T20:17:13.715Z,13.97
2023-02-24T20:19:43.484Z,11.97
2023-02-24T20:22:13.760Z,13.53
2023-02-24T20:24:47.579Z,10.97
2023-02-24T20:27:19.111Z,13.87
2023-02-24T20:29:49.049Z,14.77
2023-02-24T20:32:18.920Z,13.63
2023-02-24T20:34:49.298Z,22.23
2023-02-24T20:37:23.216Z,19.80
2023-02-24T20:39:57.096Z,16.50
2023-02-24T20:42:26.863Z,17.20
2023-02-24T20:44:56.630Z,18.13
2023-02-24T20:47:26.529Z,20.20
2023-02-24T20:49:56.292Z,7.47
2023-02-24T20:52:26.050Z,6.97
2023-02-24T20:54:58.432Z,7.50
2023-02-24T20:57:30.541Z,11.70
2023-02-24T21:00:04.961Z,11.47
2023-02-24T21:02:34.763Z,11.33
2023-02-24T21:05:04.591Z,13.53
2023-02-24T21:07:37.010Z,18.40
2023-02-24T21:10:10.127Z,9.73
2023-02-24T21:12:40.162Z,14.67
2023-02-24T21:15:12.408Z,19.97
2023-02-24T21:17:42.596Z,22.73
2023-02-24T21:20:14.540Z,22.97
2023-02-24T21:22:44.886Z,22.67
2023-02-24T21:25:17.550Z,20.90
2023-02-24T21:27:48.684Z,21.13
2023-02-24T21:30:23.155Z,17.33
2023-02-24T21:32:52.949Z,18.40
2023-02-24T21:35:22.757Z,13.27
2023-02-24T21:37:52.555Z,19.80
2023-02-24T21:40:24.997Z,16.17
2023-02-24T21:42:54.904Z,16.33
2023-02-24T21:45:24.729Z,19.20
2023-02-24T21:47:54.509Z,13.63
2023-02-24T21:50:25.004Z,9.73
2023-02-24T21:52:56.042Z,9.70
2023-02-24T21:55:28.391Z,15.17
2023-02-24T21:57:58.162Z,11.83
2023-02-24T22:00:28.795Z,15.23
2023-02-24T22:02:59.040Z,18.97
2023-02-24T22:05:29.680Z,12.33
2023-02-24T22:07:59.610Z,9.00
2023-02-24T22:10:32.153Z,11.53
2023-02-24T22:13:01.985Z,6.80
2023-02-24T22:15:31.807Z,14.43
2023-02-24T22:18:01.788Z,12.23
2023-02-24T22:20:31.558Z,16.93
2023-02-24T22:23:01.375Z,18.03
2023-02-24T22:25:33.777Z,23.33
2023-02-24T22:28:03.579Z,25.63
2023-02-24T22:30:33.370Z,24.23
2023-02-24T22:33:06.022Z,26.80
2023-02-24T22:35:37.155Z,29.13
2023-02-24T22:38:10.048Z,25.20
2023-02-24T22:40:42.557Z,26.60
2023-02-24T22:43:12.351Z,22.87
2023-02-24T22:45:42.178Z,28.67
2023-02-24T22:48:11.991Z,29.77
2023-02-24T22:50:41.817Z,29.13
2023-02-24T22:53:11.665Z,31.03
2023-02-24T22:55:48.708Z,37.70
2023-02-24T22:58:18.519Z,31.70
2023-02-24T23:00:49.346Z,34.93
2023-02-24T23:03:21.729Z,37.10
2023-02-24T23:05:57.928Z,27.10
2023-02-24T23:08:28.263Z,29.50
2023-02-24T23:11:06.983Z,36.70
2023-02-24T23:13:38.437Z,34.23
2023-02-24T23:16:11.535Z,33.40
2023-02-24T23:18:41.371Z,33.17
2023-02-24T23:21:12.969Z,30.43
2023-02-24T23:23:42.770Z,32.70
2023-02-24T23:26:15.330Z,34.87
2023-02-24T23:28:45.151Z,17.10
2023-02-24T23:31:20.987Z,21.17
2023-02-24T23:33:51.083Z,13.73
2023-02-24T23:36:22.021Z,16.13
2023-02-24T23:38:52.112Z,19.70
2023-02-24T23:41:24.461Z,21.03
2023-02-24T23:43:54.382Z,20.10
2023-02-24T23:46:24.763Z,23.10
2023-02-24T23:48:57.401Z,22.10
2023-02-24T23:51:38.598Z,28.87
2023-02-24T23:54:15.990Z,26.57
2023-02-24T23:56:48.474Z,36.17
2023-02-24T23:59:18.814Z,33.63
